sensor_id;sensor_type;location;lat;lon;timestamp;P1;durP1;ratioP1;P2;durP2;ratioP2
26951;SDS011;14507;52.418;13.398;2023-09-18T00:00:25;8.98;;;7.07;;
26951;SDS011;14507;52.418;13.398;2023-09-18T00:02:51;8.95;;;7.30;;
26951;SDS011;14507;52.418;13.398;2023-09-18T00:05:17;9.65;;;6.38;;
26951;SDS011;14507;52.418;13.398;2023-09-18T00:07:42;11.63;;;7.53;;
26951;SDS011;14507;52.418;13.398;2023-09-18T00:10:11;9.80;;;7.10;;
26951;SDS011;14507;52.418;13.398;2023-09-18T00:12:37;9.20;;;6.82;;
26951;SDS011;14507;52.418;13.398;2023-09-18T00:15:04;10.45;;;7.43;;
26951;SDS011;14507;52.418;13.398;2023-09-18T00:17:30;10.13;;;6.93;;
26951;SDS011;14507;52.418;13.398;2023-09-18T00:19:56;8.93;;;7.40;;
26951;SDS011;14507;52.418;13.398;2023-09-18T00:22:21;9.98;;;7.30;;
26951;SDS011;14507;52.418;13.398;2023-09-18T00:24:49;11.85;;;6.85;;
26951;SDS011;14507;52.418;13.398;2023-09-18T00:27:15;11.95;;;7.72;;
26951;SDS011;14507;52.418;13.398;2023-09-18T00:29:41;10.88;;;7.50;;
26951;SDS011;14507;52.418;13.398;2023-09-18T00:32:07;11.23;;;7.28;;
26951;SDS011;14507;52.418;13.398;2023-09-18T00:34:33;13.85;;;7.07;;
26951;SDS011;14507;52.418;13.398;2023-09-18T00:36:58;11.38;;;7.45;;
26951;SDS011;14507;52.418;13.398;2023-09-18T00:39:24;8.05;;;6.85;;
26951;SDS011;14507;52.418;13.398;2023-09-18T00:41:51;10.85;;;7.55;;
26951;SDS011;14507;52.418;13.398;2023-09-18T00:44:19;8.57;;;6.82;;
26951;SDS011;14507;52.418;13.398;2023-09-18T00:46:46;9.38;;;7.18;;
26951;SDS011;14507;52.418;13.398;2023-09-18T00:49:12;11.43;;;7.05;;
26951;SDS011;14507;52.418;13.398;2023-09-18T00:51:38;11.25;;;7.20;;
26951;SDS011;14507;52.418;13.398;2023-09-18T00:54:04;12.20;;;7.72;;
26951;SDS011;14507;52.418;13.398;2023-09-18T00:56:32;10.50;;;6.77;;
26951;SDS011;14507;52.418;13.398;2023-09-18T00:58:59;10.95;;;6.90;;
26951;SDS011;14507;52.418;13.398;2023-09-18T01:01:25;10.73;;;7.45;;
26951;SDS011;14507;52.418;13.398;2023-09-18T01:03:50;10.18;;;7.47;;
26951;SDS011;14507;52.418;13.398;2023-09-18T01:06:18;10.52;;;6.95;;
26951;SDS011;14507;52.418;13.398;2023-09-18T01:08:45;10.88;;;7.30;;
26951;SDS011;14507;52.418;13.398;2023-09-18T01:11:19;10.82;;;6.68;;
26951;SDS011;14507;52.418;13.398;2023-09-18T01:13:53;9.10;;;6.70;;
26951;SDS011;14507;52.418;13.398;2023-09-18T01:16:24;9.88;;;6.72;;
26951;SDS011;14507;52.418;13.398;2023-09-18T01:18:56;11.23;;;7.03;;
26951;SDS011;14507;52.418;13.398;2023-09-18T01:21:22;12.02;;;7.35;;
26951;SDS011;14507;52.418;13.398;2023-09-18T01:23:48;10.20;;;6.50;;
26951;SDS011;14507;52.418;13.398;2023-09-18T01:26:14;11.10;;;6.68;;
26951;SDS011;14507;52.418;13.398;2023-09-18T01:28:40;9.82;;;6.78;;
26951;SDS011;14507;52.418;13.398;2023-09-18T01:31:05;11.13;;;7.07;;
26951;SDS011;14507;52.418;13.398;2023-09-18T01:33:31;9.77;;;6.68;;
26951;SDS011;14507;52.418;13.398;2023-09-18T01:35:59;10.25;;;7.00;;
26951;SDS011;14507;52.418;13.398;2023-09-18T01:38:25;10.27;;;6.70;;
26951;SDS011;14507;52.418;13.398;2023-09-18T01:40:52;10.40;;;7.22;;
26951;SDS011;14507;52.418;13.398;2023-09-18T01:43:19;9.55;;;6.70;;
26951;SDS011;14507;52.418;13.398;2023-09-18T01:45:45;10.25;;;7.25;;
26951;SDS011;14507;52.418;13.398;2023-09-18T01:48:11;9.40;;;6.72;;
26951;SDS011;14507;52.418;13.398;2023-09-18T01:50:37;10.48;;;6.93;;
26951;SDS011;14507;52.418;13.398;2023-09-18T01:53:05;8.52;;;5.95;;
26951;SDS011;14507;52.418;13.398;2023-09-18T01:55:30;9.15;;;5.78;;
26951;SDS011;14507;52.418;13.398;2023-09-18T01:57:57;12.65;;;6.95;;
26951;SDS011;14507;52.418;13.398;2023-09-18T02:00:24;9.50;;;6.88;;
26951;SDS011;14507;52.418;13.398;2023-09-18T02:02:49;7.88;;;6.68;;
26951;SDS011;14507;52.418;13.398;2023-09-18T02:05:15;7.97;;;6.45;;
26951;SDS011;14507;52.418;13.398;2023-09-18T02:07:41;8.88;;;6.90;;
26951;SDS011;14507;52.418;13.398;2023-09-18T02:10:06;10.25;;;6.93;;
26951;SDS011;14507;52.418;13.398;2023-09-18T02:12:32;8.55;;;6.75;;
26951;SDS011;14507;52.418;13.398;2023-09-18T02:14:58;8.38;;;6.85;;
26951;SDS011;14507;52.418;13.398;2023-09-18T02:17:29;8.43;;;6.63;;
26951;SDS011;14507;52.418;13.398;2023-09-18T02:19:55;12.15;;;7.38;;
26951;SDS011;14507;52.418;13.398;2023-09-18T02:22:20;13.40;;;7.90;;
26951;SDS011;14507;52.418;13.398;2023-09-18T02:24:46;11.98;;;7.30;;
26951;SDS011;14507;52.418;13.398;2023-09-18T02:27:11;10.85;;;7.43;;
26951;SDS011;14507;52.418;13.398;2023-09-18T02:29:37;11.48;;;7.07;;
26951;SDS011;14507;52.418;13.398;2023-09-18T02:32:03;8.77;;;6.63;;
26951;SDS011;14507;52.418;13.398;2023-09-18T02:34:28;8.57;;;6.53;;
26951;SDS011;14507;52.418;13.398;2023-09-18T02:36:54;13.95;;;7.22;;
26951;SDS011;14507;52.418;13.398;2023-09-18T02:39:20;10.25;;;6.57;;
26951;SDS011;14507;52.418;13.398;2023-09-18T02:41:46;8.45;;;6.72;;
26951;SDS011;14507;52.418;13.398;2023-09-18T02:44:11;10.60;;;6.70;;
26951;SDS011;14507;52.418;13.398;2023-09-18T02:46:37;8.43;;;6.45;;
26951;SDS011;14507;52.418;13.398;2023-09-18T02:49:03;9.85;;;6.43;;
26951;SDS011;14507;52.418;13.398;2023-09-18T02:51:29;10.23;;;7.30;;
26951;SDS011;14507;52.418;13.398;2023-09-18T02:53:57;9.15;;;6.55;;
26951;SDS011;14507;52.418;13.398;2023-09-18T02:56:22;8.57;;;6.95;;
26951;SDS011;14507;52.418;13.398;2023-09-18T02:58:48;11.73;;;6.93;;
26951;SDS011;14507;52.418;13.398;2023-09-18T03:01:14;8.70;;;6.65;;
26951;SDS011;14507;52.418;13.398;2023-09-18T03:03:40;8.25;;;6.20;;
26951;SDS011;14507;52.418;13.398;2023-09-18T03:06:06;12.10;;;7.30;;
26951;SDS011;14507;52.418;13.398;2023-09-18T03:08:32;12.13;;;7.70;;
26951;SDS011;14507;52.418;13.398;2023-09-18T03:11:00;9.45;;;7.03;;
26951;SDS011;14507;52.418;13.398;2023-09-18T03:13:27;11.02;;;7.25;;
26951;SDS011;14507;52.418;13.398;2023-09-18T03:15:53;12.43;;;7.50;;
26951;SDS011;14507;52.418;13.398;2023-09-18T03:18:19;10.18;;;6.80;;
26951;SDS011;14507;52.418;13.398;2023-09-18T03:20:45;11.02;;;6.72;;
26951;SDS011;14507;52.418;13.398;2023-09-18T03:23:10;11.48;;;7.35;;
26951;SDS011;14507;52.418;13.398;2023-09-18T03:25:36;9.85;;;6.95;;
26951;SDS011;14507;52.418;13.398;2023-09-18T03:28:05;10.95;;;6.82;;
26951;SDS011;14507;52.418;13.398;2023-09-18T03:30:31;9.80;;;6.88;;
26951;SDS011;14507;52.418;13.398;2023-09-18T03:32:57;11.43;;;6.95;;
26951;SDS011;14507;52.418;13.398;2023-09-18T03:35:23;9.02;;;6.95;;
26951;SDS011;14507;52.418;13.398;2023-09-18T03:37:49;8.43;;;7.15;;
26951;SDS011;14507;52.418;13.398;2023-09-18T03:40:17;9.70;;;6.57;;
26951;SDS011;14507;52.418;13.398;2023-09-18T03:42:46;11.15;;;6.45;;
26951;SDS011;14507;52.418;13.398;2023-09-18T03:45:12;10.07;;;6.60;;
26951;SDS011;14507;52.418;13.398;2023-09-18T03:47:40;9.27;;;6.78;;
26951;SDS011;14507;52.418;13.398;2023-09-18T03:50:07;12.52;;;7.38;;
26951;SDS011;14507;52.418;13.398;2023-09-18T03:52:37;12.65;;;7.13;;
26951;SDS011;14507;52.418;13.398;2023-09-18T03:55:04;9.30;;;7.03;;
26951;SDS011;14507;52.418;13.398;2023-09-18T03:57:31;9.80;;;6.65;;
26951;SDS011;14507;52.418;13.398;2023-09-18T03:59:56;8.32;;;6.60;;
26951;SDS011;14507;52.418;13.398;2023-09-18T04:02:23;8.95;;;6.57;;
26951;SDS011;14507;52.418;13.398;2023-09-18T04:04:50;8.85;;;6.85;;
26951;SDS011;14507;52.418;13.398;2023-09-18T04:07:16;11.05;;;7.25;;
26951;SDS011;14507;52.418;13.398;2023-09-18T04:09:42;9.55;;;7.35;;
26951;SDS011;14507;52.418;13.398;2023-09-18T04:12:13;11.15;;;7.03;;
26951;SDS011;14507;52.418;13.398;2023-09-18T04:14:39;10.75;;;6.60;;
26951;SDS011;14507;52.418;13.398;2023-09-18T04:17:05;10.50;;;7.47;;
26951;SDS011;14507;52.418;13.398;2023-09-18T04:19:31;8.80;;;6.93;;
26951;SDS011;14507;52.418;13.398;2023-09-18T04:21:58;11.10;;;7.37;;
26951;SDS011;14507;52.418;13.398;2023-09-18T04:24:24;10.50;;;7.00;;
26951;SDS011;14507;52.418;13.398;2023-09-18T04:26:51;14.68;;;8.05;;
26951;SDS011;14507;52.418;13.398;2023-09-18T04:29:25;12.15;;;7.68;;
26951;SDS011;14507;52.418;13.398;2023-09-18T04:31:52;11.70;;;7.63;;
26951;SDS011;14507;52.418;13.398;2023-09-18T04:34:20;11.50;;;7.45;;
26951;SDS011;14507;52.418;13.398;2023-09-18T04:36:46;11.43;;;8.30;;
26951;SDS011;14507;52.418;13.398;2023-09-18T04:39:12;10.95;;;7.68;;
26951;SDS011;14507;52.418;13.398;2023-09-18T04:41:39;11.95;;;7.60;;
26951;SDS011;14507;52.418;13.398;2023-09-18T04:44:04;10.65;;;6.95;;
26951;SDS011;14507;52.418;13.398;2023-09-18T04:46:30;11.98;;;7.60;;
26951;SDS011;14507;52.418;13.398;2023-09-18T04:48:56;14.15;;;7.38;;
26951;SDS011;14507;52.418;13.398;2023-09-18T04:51:21;12.32;;;7.45;;
26951;SDS011;14507;52.418;13.398;2023-09-18T04:53:47;14.00;;;7.55;;
26951;SDS011;14507;52.418;13.398;2023-09-18T04:56:12;9.35;;;7.15;;
26951;SDS011;14507;52.418;13.398;2023-09-18T04:58:38;11.80;;;7.40;;
26951;SDS011;14507;52.418;13.398;2023-09-18T05:01:04;11.27;;;7.18;;
26951;SDS011;14507;52.418;13.398;2023-09-18T05:03:32;12.93;;;7.20;;
26951;SDS011;14507;52.418;13.398;2023-09-18T05:05:59;11.80;;;7.65;;
26951;SDS011;14507;52.418;13.398;2023-09-18T05:08:24;10.65;;;7.35;;
26951;SDS011;14507;52.418;13.398;2023-09-18T05:10:50;8.77;;;6.55;;
26951;SDS011;14507;52.418;13.398;2023-09-18T05:13:16;11.13;;;6.80;;
26951;SDS011;14507;52.418;13.398;2023-09-18T05:15:41;12.35;;;7.43;;
26951;SDS011;14507;52.418;13.398;2023-09-18T05:18:07;9.88;;;7.22;;
26951;SDS011;14507;52.418;13.398;2023-09-18T05:20:33;12.13;;;7.10;;
26951;SDS011;14507;52.418;13.398;2023-09-18T05:22:59;9.00;;;7.07;;
26951;SDS011;14507;52.418;13.398;2023-09-18T05:25:27;11.50;;;7.82;;
26951;SDS011;14507;52.418;13.398;2023-09-18T05:27:54;14.88;;;7.43;;
26951;SDS011;14507;52.418;13.398;2023-09-18T05:30:24;16.23;;;7.28;;
26951;SDS011;14507;52.418;13.398;2023-09-18T05:32:53;10.32;;;6.97;;
26951;SDS011;14507;52.418;13.398;2023-09-18T05:35:19;10.35;;;7.15;;
26951;SDS011;14507;52.418;13.398;2023-09-18T05:37:46;12.07;;;7.25;;
26951;SDS011;14507;52.418;13.398;2023-09-18T05:40:12;9.20;;;6.97;;
26951;SDS011;14507;52.418;13.398;2023-09-18T05:42:39;10.38;;;6.32;;
26951;SDS011;14507;52.418;13.398;2023-09-18T05:45:08;10.68;;;6.18;;
26951;SDS011;14507;52.418;13.398;2023-09-18T05:47:34;9.68;;;6.45;;
26951;SDS011;14507;52.418;13.398;2023-09-18T05:50:03;12.00;;;6.35;;
26951;SDS011;14507;52.418;13.398;2023-09-18T05:52:31;12.10;;;6.60;;
26951;SDS011;14507;52.418;13.398;2023-09-18T05:54:58;12.55;;;6.05;;
26951;SDS011;14507;52.418;13.398;2023-09-18T05:57:23;9.35;;;5.70;;
26951;SDS011;14507;52.418;13.398;2023-09-18T05:59:49;9.60;;;5.90;;
26951;SDS011;14507;52.418;13.398;2023-09-18T06:02:14;7.78;;;5.80;;
26951;SDS011;14507;52.418;13.398;2023-09-18T06:04:41;10.70;;;5.55;;
26951;SDS011;14507;52.418;13.398;2023-09-18T06:07:08;11.38;;;5.82;;
26951;SDS011;14507;52.418;13.398;2023-09-18T06:09:33;13.20;;;5.60;;
26951;SDS011;14507;52.418;13.398;2023-09-18T06:11:59;9.52;;;6.32;;
26951;SDS011;14507;52.418;13.398;2023-09-18T06:14:25;11.15;;;5.90;;
26951;SDS011;14507;52.418;13.398;2023-09-18T06:16:51;8.10;;;6.15;;
26951;SDS011;14507;52.418;13.398;2023-09-18T06:19:16;10.65;;;5.68;;
26951;SDS011;14507;52.418;13.398;2023-09-18T06:21:42;8.88;;;5.57;;
26951;SDS011;14507;52.418;13.398;2023-09-18T06:24:09;11.02;;;5.57;;
26951;SDS011;14507;52.418;13.398;2023-09-18T06:26:35;8.75;;;5.15;;
26951;SDS011;14507;52.418;13.398;2023-09-18T06:29:01;12.35;;;5.72;;
26951;SDS011;14507;52.418;13.398;2023-09-18T06:31:30;9.38;;;5.40;;
26951;SDS011;14507;52.418;13.398;2023-09-18T06:33:56;8.73;;;5.35;;
26951;SDS011;14507;52.418;13.398;2023-09-18T06:36:22;8.43;;;5.30;;
26951;SDS011;14507;52.418;13.398;2023-09-18T06:38:47;8.13;;;5.20;;
26951;SDS011;14507;52.418;13.398;2023-09-18T06:41:13;11.80;;;4.93;;
26951;SDS011;14507;52.418;13.398;2023-09-18T06:43:39;7.22;;;5.00;;
26951;SDS011;14507;52.418;13.398;2023-09-18T06:46:06;8.23;;;4.43;;
26951;SDS011;14507;52.418;13.398;2023-09-18T06:48:32;9.35;;;4.80;;
26951;SDS011;14507;52.418;13.398;2023-09-18T06:50:58;7.18;;;4.93;;
26951;SDS011;14507;52.418;13.398;2023-09-18T06:53:27;11.60;;;5.28;;
26951;SDS011;14507;52.418;13.398;2023-09-18T06:55:54;8.13;;;5.15;;
26951;SDS011;14507;52.418;13.398;2023-09-18T06:58:19;7.82;;;4.75;;
26951;SDS011;14507;52.418;13.398;2023-09-18T07:00:45;9.40;;;4.70;;
26951;SDS011;14507;52.418;13.398;2023-09-18T07:03:11;7.80;;;4.80;;
26951;SDS011;14507;52.418;13.398;2023-09-18T07:05:37;8.23;;;4.80;;
26951;SDS011;14507;52.418;13.398;2023-09-18T07:08:05;6.80;;;4.07;;
26951;SDS011;14507;52.418;13.398;2023-09-18T07:10:34;7.55;;;4.50;;
26951;SDS011;14507;52.418;13.398;2023-09-18T07:13:00;6.10;;;4.30;;
26951;SDS011;14507;52.418;13.398;2023-09-18T07:15:26;7.35;;;3.90;;
26951;SDS011;14507;52.418;13.398;2023-09-18T07:17:51;7.95;;;4.50;;
26951;SDS011;14507;52.418;13.398;2023-09-18T07:20:17;6.97;;;4.00;;
26951;SDS011;14507;52.418;13.398;2023-09-18T07:22:45;10.25;;;3.78;;
26951;SDS011;14507;52.418;13.398;2023-09-18T07:25:12;5.93;;;3.83;;
26951;SDS011;14507;52.418;13.398;2023-09-18T07:27:38;10.98;;;4.40;;
26951;SDS011;14507;52.418;13.398;2023-09-18T07:30:09;9.48;;;3.60;;
26951;SDS011;14507;52.418;13.398;2023-09-18T07:32:35;7.50;;;3.92;;
26951;SDS011;14507;52.418;13.398;2023-09-18T07:35:01;6.93;;;3.72;;
26951;SDS011;14507;52.418;13.398;2023-09-18T07:37:29;9.60;;;4.10;;
26951;SDS011;14507;52.418;13.398;2023-09-18T07:39:55;6.57;;;3.90;;
26951;SDS011;14507;52.418;13.398;2023-09-18T07:42:23;4.65;;;3.35;;
26951;SDS011;14507;52.418;13.398;2023-09-18T07:44:50;7.32;;;3.67;;
26951;SDS011;14507;52.418;13.398;2023-09-18T07:47:16;5.50;;;3.50;;
26951;SDS011;14507;52.418;13.398;2023-09-18T07:49:42;9.30;;;3.95;;
26951;SDS011;14507;52.418;13.398;2023-09-18T07:52:07;8.32;;;3.90;;
26951;SDS011;14507;52.418;13.398;2023-09-18T07:54:33;7.63;;;3.80;;
26951;SDS011;14507;52.418;13.398;2023-09-18T07:56:59;5.80;;;4.18;;
26951;SDS011;14507;52.418;13.398;2023-09-18T07:59:25;6.00;;;3.78;;
26951;SDS011;14507;52.418;13.398;2023-09-18T08:01:51;7.63;;;3.47;;
26951;SDS011;14507;52.418;13.398;2023-09-18T08:04:17;13.38;;;3.95;;
26951;SDS011;14507;52.418;13.398;2023-09-18T08:06:42;5.57;;;3.13;;
26951;SDS011;14507;52.418;13.398;2023-09-18T08:09:08;4.97;;;3.30;;
26951;SDS011;14507;52.418;13.398;2023-09-18T08:11:40;4.53;;;3.45;;
26951;SDS011;14507;52.418;13.398;2023-09-18T08:16:33;9.10;;;3.53;;
26951;SDS011;14507;52.418;13.398;2023-09-18T08:19:00;8.52;;;3.97;;
26951;SDS011;14507;52.418;13.398;2023-09-18T08:21:26;6.70;;;3.50;;
26951;SDS011;14507;52.418;13.398;2023-09-18T08:23:54;7.03;;;3.67;;
26951;SDS011;14507;52.418;13.398;2023-09-18T08:26:20;7.75;;;3.38;;
26951;SDS011;14507;52.418;13.398;2023-09-18T08:28:46;5.40;;;2.92;;
26951;SDS011;14507;52.418;13.398;2023-09-18T08:31:12;6.25;;;3.25;;
26951;SDS011;14507;52.418;13.398;2023-09-18T08:33:41;4.05;;;3.22;;
26951;SDS011;14507;52.418;13.398;2023-09-18T08:36:07;5.13;;;3.35;;
26951;SDS011;14507;52.418;13.398;2023-09-18T08:38:33;5.45;;;3.58;;
26951;SDS011;14507;52.418;13.398;2023-09-18T08:40:59;4.70;;;3.45;;
26951;SDS011;14507;52.418;13.398;2023-09-18T08:43:25;5.00;;;3.13;;
26951;SDS011;14507;52.418;13.398;2023-09-18T08:45:52;5.13;;;3.20;;
26951;SDS011;14507;52.418;13.398;2023-09-18T08:48:19;5.13;;;3.28;;
26951;SDS011;14507;52.418;13.398;2023-09-18T08:50:47;6.32;;;3.30;;
26951;SDS011;14507;52.418;13.398;2023-09-18T08:53:13;5.72;;;3.03;;
26951;SDS011;14507;52.418;13.398;2023-09-18T08:55:40;8.60;;;3.10;;
26951;SDS011;14507;52.418;13.398;2023-09-18T08:58:06;5.30;;;3.15;;
26951;SDS011;14507;52.418;13.398;2023-09-18T09:00:33;5.57;;;2.95;;
26951;SDS011;14507;52.418;13.398;2023-09-18T09:03:00;8.45;;;3.40;;
26951;SDS011;14507;52.418;13.398;2023-09-18T09:05:26;6.00;;;3.60;;
26951;SDS011;14507;52.418;13.398;2023-09-18T09:07:52;6.97;;;2.90;;
26951;SDS011;14507;52.418;13.398;2023-09-18T09:10:18;6.82;;;3.05;;
26951;SDS011;14507;52.418;13.398;2023-09-18T09:12:57;6.55;;;3.05;;
26951;SDS011;14507;52.418;13.398;2023-09-18T09:15:28;9.77;;;3.40;;
26951;SDS011;14507;52.418;13.398;2023-09-18T09:18:03;9.77;;;3.55;;
26951;SDS011;14507;52.418;13.398;2023-09-18T09:20:31;4.55;;;3.20;;
26951;SDS011;14507;52.418;13.398;2023-09-18T09:23:00;5.10;;;3.45;;
26951;SDS011;14507;52.418;13.398;2023-09-18T09:25:28;6.18;;;3.28;;
26951;SDS011;14507;52.418;13.398;2023-09-18T09:27:57;7.88;;;3.30;;
26951;SDS011;14507;52.418;13.398;2023-09-18T09:32:51;8.65;;;3.45;;
26951;SDS011;14507;52.418;13.398;2023-09-18T09:35:19;5.75;;;3.28;;
26951;SDS011;14507;52.418;13.398;2023-09-18T09:37:53;4.78;;;3.15;;
26951;SDS011;14507;52.418;13.398;2023-09-18T09:40:22;5.25;;;3.30;;
26951;SDS011;14507;52.418;13.398;2023-09-18T09:42:53;6.05;;;3.20;;
26951;SDS011;14507;52.418;13.398;2023-09-18T09:45:25;4.18;;;3.05;;
26951;SDS011;14507;52.418;13.398;2023-09-18T09:47:55;9.65;;;3.17;;
26951;SDS011;14507;52.418;13.398;2023-09-18T09:50:22;5.82;;;3.15;;
26951;SDS011;14507;52.418;13.398;2023-09-18T09:52:50;5.72;;;2.88;;
26951;SDS011;14507;52.418;13.398;2023-09-18T09:55:22;5.40;;;3.10;;
26951;SDS011;14507;52.418;13.398;2023-09-18T09:58:02;7.10;;;3.25;;
26951;SDS011;14507;52.418;13.398;2023-09-18T10:03:08;5.45;;;3.30;;
26951;SDS011;14507;52.418;13.398;2023-09-18T10:05:35;4.60;;;3.10;;
26951;SDS011;14507;52.418;13.398;2023-09-18T10:08:17;5.20;;;3.10;;
26951;SDS011;14507;52.418;13.398;2023-09-18T10:10:51;4.82;;;3.10;;
26951;SDS011;14507;52.418;13.398;2023-09-18T10:13:27;4.95;;;3.10;;
26951;SDS011;14507;52.418;13.398;2023-09-18T10:18:42;5.90;;;3.00;;
26951;SDS011;14507;52.418;13.398;2023-09-18T10:21:29;3.80;;;2.92;;
26951;SDS011;14507;52.418;13.398;2023-09-18T10:24:33;5.22;;;2.97;;
26951;SDS011;14507;52.418;13.398;2023-09-18T10:27:03;3.85;;;2.85;;
26951;SDS011;14507;52.418;13.398;2023-09-18T10:29:32;4.93;;;3.05;;
26951;SDS011;14507;52.418;13.398;2023-09-18T10:32:02;5.25;;;3.58;;
26951;SDS011;14507;52.418;13.398;2023-09-18T10:34:29;5.50;;;3.30;;
26951;SDS011;14507;52.418;13.398;2023-09-18T10:36:58;5.20;;;3.03;;
26951;SDS011;14507;52.418;13.398;2023-09-18T10:39:25;5.47;;;3.42;;
26951;SDS011;14507;52.418;13.398;2023-09-18T10:41:54;10.50;;;3.60;;
26951;SDS011;14507;52.418;13.398;2023-09-18T10:44:23;6.22;;;3.50;;
26951;SDS011;14507;52.418;13.398;2023-09-18T10:46:49;5.03;;;3.70;;
26951;SDS011;14507;52.418;13.398;2023-09-18T10:49:19;6.38;;;3.38;;
26951;SDS011;14507;52.418;13.398;2023-09-18T10:51:48;4.88;;;3.45;;
26951;SDS011;14507;52.418;13.398;2023-09-18T10:54:21;6.68;;;3.58;;
26951;SDS011;14507;52.418;13.398;2023-09-18T10:56:48;13.73;;;3.88;;
26951;SDS011;14507;52.418;13.398;2023-09-18T10:59:15;7.72;;;3.70;;
26951;SDS011;14507;52.418;13.398;2023-09-18T11:01:41;5.22;;;3.75;;
26951;SDS011;14507;52.418;13.398;2023-09-18T11:04:07;6.72;;;3.53;;
26951;SDS011;14507;52.418;13.398;2023-09-18T11:09:46;7.43;;;3.50;;
26951;SDS011;14507;52.418;13.398;2023-09-18T11:12:12;6.82;;;3.20;;
26951;SDS011;14507;52.418;13.398;2023-09-18T11:14:41;8.25;;;3.53;;
26951;SDS011;14507;52.418;13.398;2023-09-18T11:20:18;7.20;;;3.30;;
26951;SDS011;14507;52.418;13.398;2023-09-18T11:23:09;5.35;;;3.42;;
26951;SDS011;14507;52.418;13.398;2023-09-18T11:25:43;5.40;;;3.40;;
26951;SDS011;14507;52.418;13.398;2023-09-18T11:28:22;9.88;;;3.53;;
26951;SDS011;14507;52.418;13.398;2023-09-18T11:30:50;5.93;;;3.58;;
26951;SDS011;14507;52.418;13.398;2023-09-18T11:33:44;9.13;;;3.20;;
26951;SDS011;14507;52.418;13.398;2023-09-18T11:36:12;4.53;;;2.90;;
26951;SDS011;14507;52.418;13.398;2023-09-18T11:38:57;4.57;;;3.53;;
26951;SDS011;14507;52.418;13.398;2023-09-18T11:41:29;7.55;;;3.50;;
26951;SDS011;14507;52.418;13.398;2023-09-18T11:44:40;6.97;;;3.42;;
26951;SDS011;14507;52.418;13.398;2023-09-18T11:46:47;5.45;;;3.47;;
26951;SDS011;14507;52.418;13.398;2023-09-18T11:49:18;6.38;;;3.28;;
26951;SDS011;14507;52.418;13.398;2023-09-18T11:51:50;7.20;;;3.53;;
26951;SDS011;14507;52.418;13.398;2023-09-18T11:54:16;5.38;;;3.00;;
26951;SDS011;14507;52.418;13.398;2023-09-18T11:56:42;5.18;;;3.47;;
26951;SDS011;14507;52.418;13.398;2023-09-18T11:59:09;6.07;;;3.03;;
26951;SDS011;14507;52.418;13.398;2023-09-18T12:01:35;5.97;;;3.63;;
26951;SDS011;14507;52.418;13.398;2023-09-18T12:06:37;6.40;;;3.58;;
26951;SDS011;14507;52.418;13.398;2023-09-18T12:09:05;7.82;;;3.50;;
26951;SDS011;14507;52.418;13.398;2023-09-18T12:11:32;7.70;;;3.33;;
26951;SDS011;14507;52.418;13.398;2023-09-18T12:14:00;8.70;;;3.55;;
26951;SDS011;14507;52.418;13.398;2023-09-18T12:16:29;6.55;;;3.25;;
26951;SDS011;14507;52.418;13.398;2023-09-18T12:18:55;5.22;;;3.42;;
26951;SDS011;14507;52.418;13.398;2023-09-18T12:21:22;8.43;;;3.50;;
26951;SDS011;14507;52.418;13.398;2023-09-18T12:23:48;10.25;;;3.53;;
26951;SDS011;14507;52.418;13.398;2023-09-18T12:26:15;10.02;;;3.40;;
26951;SDS011;14507;52.418;13.398;2023-09-18T12:28:44;6.00;;;3.60;;
26951;SDS011;14507;52.418;13.398;2023-09-18T12:31:14;5.30;;;3.33;;
26951;SDS011;14507;52.418;13.398;2023-09-18T12:33:42;5.55;;;2.83;;
26951;SDS011;14507;52.418;13.398;2023-09-18T12:36:09;7.90;;;3.38;;
26951;SDS011;14507;52.418;13.398;2023-09-18T12:38:36;5.38;;;3.05;;
26951;SDS011;14507;52.418;13.398;2023-09-18T12:41:03;6.40;;;3.28;;
26951;SDS011;14507;52.418;13.398;2023-09-18T12:43:33;13.32;;;3.78;;
26951;SDS011;14507;52.418;13.398;2023-09-18T12:46:09;9.48;;;3.00;;
26951;SDS011;14507;52.418;13.398;2023-09-18T12:48:38;5.50;;;3.15;;
26951;SDS011;14507;52.418;13.398;2023-09-18T12:51:10;7.60;;;2.65;;
26951;SDS011;14507;52.418;13.398;2023-09-18T12:53:36;56.58;;;14.10;;
26951;SDS011;14507;52.418;13.398;2023-09-18T12:56:12;8.55;;;4.15;;
26951;SDS011;14507;52.418;13.398;2023-09-18T12:58:39;7.78;;;3.42;;
26951;SDS011;14507;52.418;13.398;2023-09-18T13:01:06;28.67;;;9.87;;
26951;SDS011;14507;52.418;13.398;2023-09-18T13:03:34;54.33;;;20.58;;
26951;SDS011;14507;52.418;13.398;2023-09-18T13:06:19;12.85;;;3.60;;
26951;SDS011;14507;52.418;13.398;2023-09-18T13:08:45;5.60;;;3.30;;
26951;SDS011;14507;52.418;13.398;2023-09-18T13:11:12;7.05;;;4.05;;
26951;SDS011;14507;52.418;13.398;2023-09-18T13:13:39;9.13;;;3.38;;
26951;SDS011;14507;52.418;13.398;2023-09-18T13:16:06;6.90;;;3.58;;
26951;SDS011;14507;52.418;13.398;2023-09-18T13:18:34;6.53;;;3.03;;
26951;SDS011;14507;52.418;13.398;2023-09-18T13:21:00;6.72;;;2.78;;
26951;SDS011;14507;52.418;13.398;2023-09-18T13:23:34;6.65;;;3.10;;
26951;SDS011;14507;52.418;13.398;2023-09-18T13:26:00;8.18;;;3.40;;
26951;SDS011;14507;52.418;13.398;2023-09-18T13:28:28;7.72;;;3.38;;
26951;SDS011;14507;52.418;13.398;2023-09-18T13:33:21;6.35;;;3.58;;
26951;SDS011;14507;52.418;13.398;2023-09-18T13:35:48;7.22;;;3.72;;
26951;SDS011;14507;52.418;13.398;2023-09-18T13:38:14;8.82;;;3.70;;
26951;SDS011;14507;52.418;13.398;2023-09-18T13:40:41;8.65;;;4.00;;
26951;SDS011;14507;52.418;13.398;2023-09-18T13:43:10;7.22;;;3.53;;
26951;SDS011;14507;52.418;13.398;2023-09-18T13:45:36;9.55;;;3.30;;
26951;SDS011;14507;52.418;13.398;2023-09-18T13:48:05;10.18;;;3.75;;
26951;SDS011;14507;52.418;13.398;2023-09-18T13:50:32;6.65;;;4.10;;
26951;SDS011;14507;52.418;13.398;2023-09-18T13:52:58;5.95;;;3.83;;
26951;SDS011;14507;52.418;13.398;2023-09-18T13:55:24;7.63;;;3.33;;
26951;SDS011;14507;52.418;13.398;2023-09-18T13:57:50;6.78;;;3.45;;
26951;SDS011;14507;52.418;13.398;2023-09-18T14:00:16;10.65;;;3.88;;
26951;SDS011;14507;52.418;13.398;2023-09-18T14:02:42;5.30;;;3.03;;
26951;SDS011;14507;52.418;13.398;2023-09-18T14:05:07;9.05;;;3.33;;
26951;SDS011;14507;52.418;13.398;2023-09-18T14:07:35;8.27;;;3.63;;
26951;SDS011;14507;52.418;13.398;2023-09-18T14:10:03;8.52;;;3.78;;
26951;SDS011;14507;52.418;13.398;2023-09-18T14:12:32;8.95;;;3.88;;
26951;SDS011;14507;52.418;13.398;2023-09-18T14:14:58;6.93;;;3.95;;
26951;SDS011;14507;52.418;13.398;2023-09-18T14:17:24;9.82;;;3.70;;
26951;SDS011;14507;52.418;13.398;2023-09-18T14:19:50;12.30;;;3.58;;
26951;SDS011;14507;52.418;13.398;2023-09-18T14:22:18;9.48;;;3.28;;
26951;SDS011;14507;52.418;13.398;2023-09-18T14:24:44;13.52;;;3.22;;
26951;SDS011;14507;52.418;13.398;2023-09-18T14:27:10;10.68;;;3.22;;
26951;SDS011;14507;52.418;13.398;2023-09-18T14:29:37;6.43;;;2.67;;
26951;SDS011;14507;52.418;13.398;2023-09-18T14:32:03;11.45;;;2.72;;
26951;SDS011;14507;52.418;13.398;2023-09-18T14:34:29;9.23;;;2.75;;
26951;SDS011;14507;52.418;13.398;2023-09-18T14:36:55;12.23;;;2.67;;
26951;SDS011;14507;52.418;13.398;2023-09-18T14:39:21;6.47;;;2.42;;
26951;SDS011;14507;52.418;13.398;2023-09-18T14:41:47;6.85;;;2.45;;
26951;SDS011;14507;52.418;13.398;2023-09-18T14:44:13;9.57;;;2.67;;
26951;SDS011;14507;52.418;13.398;2023-09-18T14:46:40;11.50;;;2.50;;
26951;SDS011;14507;52.418;13.398;2023-09-18T14:49:06;8.90;;;2.20;;
26951;SDS011;14507;52.418;13.398;2023-09-18T14:51:32;12.30;;;3.00;;
26951;SDS011;14507;52.418;13.398;2023-09-18T14:53:59;7.25;;;2.47;;